createdAt,value
2022-11-18T00:01:15.438Z,100.00
2022-11-18T00:05:16.844Z,100.00
2022-11-18T00:09:18.717Z,100.00
2022-11-18T00:13:39.657Z,100.00
2022-11-18T00:17:41.052Z,100.00
2022-11-18T00:21:42.608Z,100.00
2022-11-18T00:25:44.163Z,100.00
2022-11-18T00:29:45.635Z,100.00
2022-11-18T00:33:47.104Z,100.00
2022-11-18T00:37:48.596Z,100.00
2022-11-18T00:42:08.805Z,100.00
2022-11-18T00:46:11.890Z,100.00
2022-11-18T00:50:13.407Z,100.00
2022-11-18T00:54:14.836Z,100.00
2022-11-18T00:58:16.998Z,100.00
2022-11-18T01:02:18.450Z,100.00
2022-11-18T01:06:20.119Z,100.00
2022-11-18T01:10:21.545Z,100.00
2022-11-18T01:14:25.033Z,100.00
2022-11-18T01:18:30.550Z,100.00
2022-11-18T01:22:32.006Z,100.00
2022-11-18T01:26:33.432Z,100.00
2022-11-18T01:30:36.314Z,100.00
2022-11-18T01:34:37.782Z,100.00
2022-11-18T01:38:39.208Z,100.00
2022-11-18T01:42:40.698Z,100.00
2022-11-18T01:46:42.118Z,100.00
2022-11-18T01:50:52.092Z,100.00
2022-11-18T01:54:57.640Z,100.00
2022-11-18T01:59:03.755Z,100.00
2022-11-18T02:03:05.875Z,100.00
2022-11-18T02:07:08.882Z,100.00
2022-11-18T02:11:33.615Z,100.00
2022-11-18T02:15:41.934Z,100.00
2022-11-18T02:19:46.071Z,100.00
2022-11-18T02:24:19.790Z,100.00
2022-11-18T02:28:58.052Z,100.00
2022-11-18T02:33:12.343Z,100.00
2022-11-18T02:37:44.022Z,100.00
2022-11-18T02:41:47.420Z,100.00
2022-11-18T02:45:54.137Z,100.00
2022-11-18T02:50:00.250Z,100.00
2022-11-18T02:54:07.836Z,100.00
2022-11-18T02:58:10.469Z,100.00
2022-11-18T03:02:20.047Z,100.00
2022-11-18T03:06:29.415Z,100.00
2022-11-18T03:11:07.871Z,100.00
2022-11-18T03:15:21.183Z,100.00
2022-11-18T03:19:42.952Z,100.00
2022-11-18T03:23:57.125Z,100.00
2022-11-18T03:28:19.957Z,100.00
2022-11-18T03:32:28.488Z,100.00
2022-11-18T03:36:37.185Z,100.00
2022-11-18T03:40:41.468Z,100.00
2022-11-18T03:44:52.584Z,100.00
2022-11-18T03:48:56.391Z,100.00
2022-11-18T03:52:59.586Z,100.00
2022-11-18T03:57:09.322Z,100.00
2022-11-18T04:01:23.198Z,100.00
2022-11-18T04:05:24.821Z,100.00
2022-11-18T04:09:32.326Z,100.00
2022-11-18T04:13:37.404Z,100.00
2022-11-18T04:17:41.874Z,100.00
2022-11-18T04:21:43.296Z,100.00
2022-11-18T04:25:44.776Z,100.00
2022-11-18T04:29:46.191Z,100.00
2022-11-18T04:33:47.583Z,100.00
2022-11-18T04:37:49.190Z,100.00
2022-11-18T04:41:56.403Z,100.00
2022-11-18T04:45:59.802Z,100.00
2022-11-18T04:50:02.263Z,100.00
2022-11-18T04:54:08.578Z,100.00
2022-11-18T04:58:14.925Z,100.00
2022-11-18T05:02:16.495Z,100.00
2022-11-18T05:06:17.897Z,100.00
2022-11-18T05:10:19.446Z,100.00
2022-11-18T05:14:20.878Z,100.00
2022-11-18T05:18:22.350Z,100.00
2022-11-18T05:22:23.802Z,100.00
2022-11-18T05:26:25.655Z,100.00
2022-11-18T05:30:27.052Z,100.00
2022-11-18T05:34:28.491Z,100.00
2022-11-18T05:38:32.127Z,100.00
2022-11-18T05:42:52.390Z,100.00
2022-11-18T05:46:54.575Z,100.00
2022-11-18T05:50:56.545Z,100.00
2022-11-18T05:54:58.090Z,100.00
2022-11-18T05:58:59.590Z,100.00
2022-11-18T06:03:02.039Z,100.00
2022-11-18T06:07:10.332Z,100.00
2022-11-18T06:11:15.646Z,100.00
2022-11-18T06:15:24.743Z,100.00
2022-11-18T06:19:26.473Z,100.00
2022-11-18T06:23:30.545Z,100.00
2022-11-18T06:27:32.082Z,100.00
2022-11-18T06:31:33.874Z,100.00
2022-11-18T06:35:35.429Z,100.00
2022-11-18T06:39:37.305Z,100.00
2022-11-18T06:43:38.764Z,100.00
2022-11-18T06:47:40.228Z,100.00
2022-11-18T06:51:41.748Z,100.00
2022-11-18T06:55:43.166Z,100.00
2022-11-18T06:59:44.599Z,100.00
2022-11-18T07:03:46.522Z,100.00
2022-11-18T07:07:48.010Z,100.00
2022-11-18T07:11:49.489Z,100.00
2022-11-18T07:15:50.922Z,100.00
2022-11-18T07:19:52.768Z,100.00
2022-11-18T07:23:55.812Z,100.00
2022-11-18T07:27:58.947Z,100.00
2022-11-18T07:32:00.367Z,98.73
2022-11-18T07:36:10.668Z,97.74
2022-11-18T07:40:12.218Z,96.93
2022-11-18T07:44:13.809Z,95.19
2022-11-18T07:48:15.272Z,92.02
2022-11-18T07:52:16.735Z,89.95
2022-11-18T07:56:19.138Z,88.74
2022-11-18T08:00:20.651Z,84.87
2022-11-18T08:04:22.092Z,84.67
2022-11-18T08:08:23.511Z,82.41
2022-11-18T08:12:24.917Z,81.20
2022-11-18T08:16:27.162Z,80.33
2022-11-18T08:20:29.497Z,79.03
2022-11-18T08:24:30.894Z,78.11
2022-11-18T08:28:32.987Z,80.88
2022-11-18T08:32:34.499Z,81.96
2022-11-18T08:36:37.554Z,83.53
2022-11-18T08:40:44.595Z,83.29
2022-11-18T08:44:46.015Z,82.62
2022-11-18T08:48:47.436Z,81.21
2022-11-18T08:52:48.894Z,81.44
2022-11-18T08:56:50.546Z,82.55
2022-11-18T09:00:52.441Z,78.42
2022-11-18T09:04:53.971Z,75.88
2022-11-18T09:08:55.472Z,73.90
2022-11-18T09:13:18.112Z,73.95
2022-11-18T09:17:18.444Z,74.52
2022-11-18T09:21:19.931Z,72.19
2022-11-18T09:25:21.911Z,73.13
2022-11-18T09:29:26.040Z,70.31
2022-11-18T09:33:27.570Z,70.29
2022-11-18T09:37:29.039Z,68.75
2022-11-18T09:41:47.646Z,68.70
2022-11-18T09:45:56.498Z,66.02
2022-11-18T09:50:14.837Z,67.42
2022-11-18T09:54:25.561Z,67.60
2022-11-18T09:58:35.831Z,67.25
2022-11-18T10:02:59.213Z,65.89
2022-11-18T10:07:13.266Z,65.85
2022-11-18T10:11:24.510Z,65.59
2022-11-18T10:16:12.166Z,64.74
2022-11-18T10:20:51.050Z,64.81
2022-11-18T10:24:54.863Z,62.47
2022-11-18T10:28:57.947Z,62.07
2022-11-18T10:33:00.536Z,61.11
2022-11-18T10:37:13.416Z,62.64
2022-11-18T10:41:18.329Z,61.51
2022-11-18T10:45:22.620Z,59.99
2022-11-18T10:49:24.033Z,61.39
2022-11-18T10:53:31.495Z,59.44
2022-11-18T10:57:37.027Z,58.67
2022-11-18T11:01:38.560Z,58.53
2022-11-18T11:05:40.341Z,57.72
2022-11-18T11:09:41.893Z,59.10
2022-11-18T11:13:44.717Z,58.09
2022-11-18T11:18:13.838Z,58.08
2022-11-18T11:22:16.157Z,58.85
2022-11-18T11:31:35.952Z,57.23
2022-11-18T11:35:55.288Z,56.79
2022-11-18T11:40:16.670Z,55.61
2022-11-18T11:44:40.199Z,56.62
2022-11-18T11:49:06.653Z,55.37
2022-11-18T11:53:46.464Z,55.24
2022-11-18T11:58:23.709Z,55.28
2022-11-18T12:02:56.600Z,56.03
2022-11-18T12:06:59.799Z,56.44
2022-11-18T12:11:01.226Z,55.62
2022-11-18T12:15:17.929Z,54.30
2022-11-18T12:19:21.764Z,55.96
2022-11-18T12:23:28.968Z,56.69
2022-11-18T12:27:30.403Z,57.41
2022-11-18T12:31:34.394Z,56.70
2022-11-18T12:35:36.617Z,56.21
2022-11-18T12:39:41.003Z,56.07
2022-11-18T12:43:48.212Z,58.69
2022-11-18T12:47:57.072Z,60.15
2022-11-18T12:52:00.404Z,58.89
2022-11-18T12:56:19.175Z,60.59
2022-11-18T13:00:23.378Z,61.18
2022-11-18T13:04:24.949Z,60.73
2022-11-18T13:08:26.531Z,61.93
2022-11-18T13:12:30.359Z,62.77
2022-11-18T13:16:50.566Z,63.14
2022-11-18T13:21:20.348Z,60.56
2022-11-18T13:25:23.972Z,64.56
2022-11-18T13:29:36.297Z,65.14
2022-11-18T13:33:39.153Z,66.17
2022-11-18T13:38:00.582Z,65.24
2022-11-18T13:42:03.114Z,64.77
2022-11-18T13:46:09.309Z,71.94
2022-11-18T13:50:10.783Z,72.55
2022-11-18T13:54:20.077Z,74.22
2022-11-18T13:59:15.920Z,74.40
2022-11-18T14:03:27.426Z,77.52
2022-11-18T14:07:31.041Z,76.80
2022-11-18T14:11:38.293Z,77.14
2022-11-18T14:15:43.767Z,79.09
2022-11-18T14:19:48.638Z,81.72
2022-11-18T14:23:50.217Z,79.32
2022-11-18T14:27:53.797Z,76.93
2022-11-18T14:32:14.856Z,77.06
2022-11-18T14:36:17.828Z,85.39
2022-11-18T14:40:19.645Z,89.32
2022-11-18T14:44:22.672Z,90.48
2022-11-18T14:48:31.116Z,91.93
2022-11-18T14:52:33.834Z,99.53
2022-11-18T14:56:35.841Z,99.27
2022-11-18T15:00:37.359Z,100.00
2022-11-18T15:04:38.829Z,100.00
2022-11-18T15:08:40.917Z,99.52
2022-11-18T15:12:42.404Z,100.00
2022-11-18T15:16:43.856Z,100.00
2022-11-18T15:20:45.317Z,100.00
2022-11-18T15:24:46.848Z,100.00
2022-11-18T15:28:49.684Z,100.00
2022-11-18T15:32:51.206Z,100.00
2022-11-18T15:36:52.674Z,100.00
2022-11-18T15:40:54.082Z,100.00
2022-11-18T15:44:55.465Z,100.00
2022-11-18T15:48:58.541Z,100.00
2022-11-18T15:53:00.037Z,100.00
2022-11-18T15:57:01.439Z,100.00
2022-11-18T16:01:02.909Z,100.00
2022-11-18T16:05:04.845Z,100.00
2022-11-18T16:09:06.827Z,100.00
2022-11-18T16:13:08.233Z,100.00
2022-11-18T16:17:09.632Z,100.00
2022-11-18T16:21:11.103Z,100.00
2022-11-18T16:25:13.094Z,100.00
2022-11-18T16:29:16.662Z,100.00
2022-11-18T16:33:18.078Z,100.00
2022-11-18T16:37:19.479Z,100.00
2022-11-18T16:41:33.159Z,100.00
2022-11-18T16:45:34.574Z,100.00
2022-11-18T16:49:36.055Z,100.00
2022-11-18T16:53:37.465Z,100.00
2022-11-18T16:57:38.873Z,100.00
2022-11-18T17:01:40.685Z,100.00
2022-11-18T17:05:42.208Z,100.00
2022-11-18T17:09:43.779Z,100.00
2022-11-18T17:13:45.914Z,100.00
2022-11-18T17:17:47.412Z,100.00
2022-11-18T17:21:52.655Z,100.00
2022-11-18T17:25:54.274Z,100.00
2022-11-18T17:29:55.789Z,100.00
2022-11-18T17:34:22.565Z,100.00
2022-11-18T17:38:38.233Z,100.00
2022-11-18T17:43:11.255Z,100.00
2022-11-18T17:47:31.638Z,100.00
2022-11-18T17:51:54.726Z,100.00
2022-11-18T17:56:31.699Z,100.00
2022-11-18T18:00:52.540Z,100.00
2022-11-18T18:05:19.084Z,100.00
2022-11-18T18:10:00.636Z,100.00
2022-11-18T18:14:43.571Z,100.00
2022-11-18T18:19:20.625Z,100.00
2022-11-18T18:24:09.499Z,100.00
2022-11-18T18:28:54.957Z,100.00
2022-11-18T18:33:19.068Z,100.00
2022-11-18T18:38:17.057Z,100.00
2022-11-18T18:43:31.490Z,100.00
2022-11-18T18:49:13.531Z,100.00
2022-11-18T19:00:11.549Z,100.00
2022-11-18T19:04:29.959Z,100.00
2022-11-18T19:08:32.339Z,100.00
2022-11-18T19:12:42.803Z,100.00
2022-11-18T19:16:45.736Z,100.00
2022-11-18T19:20:47.159Z,100.00
2022-11-18T19:24:50.268Z,100.00
2022-11-18T19:28:52.294Z,100.00
2022-11-18T19:32:56.175Z,100.00
2022-11-18T19:36:57.605Z,100.00
2022-11-18T19:41:00.416Z,100.00
2022-11-18T19:45:06.411Z,100.00
2022-11-18T19:49:09.010Z,100.00
2022-11-18T19:53:29.323Z,100.00
2022-11-18T19:57:31.243Z,100.00
2022-11-18T20:01:32.955Z,100.00
2022-11-18T20:05:52.805Z,100.00
2022-11-18T20:09:54.219Z,100.00
2022-11-18T20:13:55.610Z,100.00
2022-11-18T20:17:57.258Z,100.00
2022-11-18T20:21:58.649Z,100.00
2022-11-18T20:26:09.876Z,100.00
2022-11-18T20:30:12.789Z,100.00
2022-11-18T20:34:14.399Z,100.00
2022-11-18T20:38:16.009Z,100.00
2022-11-18T20:42:36.283Z,100.00
2022-11-18T20:46:37.634Z,100.00
2022-11-18T20:50:39.138Z,100.00
2022-11-18T20:54:40.616Z,100.00
2022-11-18T20:58:42.387Z,100.00
2022-11-18T21:02:43.807Z,100.00
2022-11-18T21:06:45.659Z,100.00
2022-11-18T21:10:47.104Z,100.00
2022-11-18T21:14:48.523Z,100.00
2022-11-18T21:18:49.956Z,100.00
2022-11-18T21:22:51.383Z,100.00
2022-11-18T21:26:56.497Z,100.00
2022-11-18T21:30:57.932Z,100.00
2022-11-18T21:34:59.350Z,100.00
2022-11-18T21:39:01.629Z,100.00
2022-11-18T21:43:03.055Z,100.00
2022-11-18T21:47:04.506Z,100.00
2022-11-18T21:51:09.436Z,100.00
2022-11-18T21:55:10.875Z,100.00
2022-11-18T21:59:12.387Z,100.00
2022-11-18T22:03:13.788Z,100.00
2022-11-18T22:07:15.312Z,100.00
2022-11-18T22:11:17.030Z,100.00
2022-11-18T22:15:19.113Z,100.00
2022-11-18T22:19:20.865Z,100.00
2022-11-18T22:23:22.536Z,100.00
2022-11-18T22:27:23.982Z,100.00
2022-11-18T22:31:27.703Z,100.00
2022-11-18T22:35:29.111Z,100.00
2022-11-18T22:39:30.538Z,100.00
2022-11-18T22:43:33.495Z,100.00
2022-11-18T22:47:34.924Z,100.00
2022-11-18T22:51:37.754Z,100.00
2022-11-18T22:55:39.157Z,100.00
2022-11-18T22:59:40.793Z,100.00
2022-11-18T23:03:42.340Z,100.00
2022-11-18T23:07:43.825Z,100.00
2022-11-18T23:12:04.189Z,100.00
2022-11-18T23:16:05.776Z,100.00
2022-11-18T23:20:08.157Z,100.00
2022-11-18T23:24:14.270Z,100.00
2022-11-18T23:28:15.811Z,100.00
2022-11-18T23:32:17.223Z,100.00
2022-11-18T23:36:19.876Z,100.00
2022-11-18T23:40:21.292Z,100.00
2022-11-18T23:44:42.672Z,100.00
2022-11-18T23:48:44.922Z,100.00
2022-11-18T23:52:46.342Z,100.00
2022-11-18T23:56:47.765Z,100.00
